Time;durP1;ratioP1;P1;durP2;ratioP2;P2;SDS_P1;SDS_P2;PMS_P1;PMS_P2;Temp;Humidity;BMP_temperature;BMP_pressure;BME280_temperature;BME280_humidity;BME280_pressure;Samples;Min_cycle;Max_cycle;Signal;HPM_P1;HPM_P2
2022/11/11 00:01:17;;;;;;;7.77;4.47;;;11.90;91.00;;;12.30;58.55;100122.16;4965101;28;114214;-73
2022/11/11 00:03:44;;;;;;;5.03;3.93;;;11.80;91.00;;;12.28;58.53;100121.63;4964552;28;114493;-74
2022/11/11 00:06:15;;;;;;;7.03;4.17;;;11.90;91.00;;;12.27;58.45;100125.50;4968452;28;124353;-74
2022/11/11 00:08:47;;;;;;;10.60;3.90;;;11.80;91.00;;;12.25;58.32;100125.00;4968728;28;123943;-74
2022/11/11 00:11:15;;;;;;;8.30;4.17;;;11.90;91.10;;;12.24;58.05;100123.31;4967817;28;114426;-75
2022/11/11 00:13:43;;;;;;;6.90;4.27;;;11.80;91.10;;;12.25;57.97;100124.13;4979355;28;112936;-74
2022/11/11 00:16:18;;;;;;;6.10;3.67;;;11.80;91.10;;;12.23;57.95;100107.81;5003921;28;124028;-73
2022/11/11 00:27:16;;;;;;;8.23;3.63;;;11.70;90.90;;;12.11;58.29;100121.22;4970503;28;124766;-74
2022/11/11 00:29:46;;;;;;;6.13;3.53;;;11.70;90.90;;;12.09;58.36;100127.06;4966239;28;124002;-74
2022/11/11 00:32:22;;;;;;;7.20;3.37;;;11.70;90.90;;;12.08;58.05;100130.13;4957367;28;114117;-74
2022/11/11 00:37:47;;;;;;;5.40;4.10;;;11.60;90.80;;;12.02;58.25;100136.81;4967893;28;124544;-74
2022/11/11 00:40:16;;;;;;;4.90;3.50;;;11.60;90.80;;;12.01;58.32;100129.59;4967040;28;123822;-74
2022/11/11 00:42:42;;;;;;;6.60;3.83;;;11.60;90.80;;;12.00;57.86;100133.50;4966648;28;114145;-74
2022/11/11 00:45:10;;;;;;;8.63;4.10;;;11.60;90.90;;;11.97;57.88;100140.44;5000748;28;114061;-74
2022/11/11 00:53:24;;;;;;;10.80;3.50;;;11.50;90.90;;;11.87;58.34;100141.34;4967380;28;116213;-74
2022/11/11 00:55:52;;;;;;;3.93;3.30;;;11.50;90.90;;;11.83;58.21;100150.50;4971845;28;112070;-75
2022/11/11 00:58:21;;;;;;;9.43;3.73;;;11.50;90.90;;;11.82;58.24;100146.91;4975725;28;124053;-78
2022/11/11 01:00:54;;;;;;;6.43;3.87;;;11.40;90.90;;;11.80;58.20;100164.94;4969187;28;122615;-75
2022/11/11 01:03:22;;;;;;;4.40;3.30;;;11.40;90.90;;;11.78;58.62;100162.44;4973706;28;114443;-75
2022/11/11 01:05:48;;;;;;;4.23;3.20;;;11.40;90.90;;;11.78;58.38;100161.59;4969983;28;114040;-75
2022/11/11 01:08:15;;;;;;;9.60;3.27;;;11.40;90.90;;;11.76;58.74;100164.66;4968986;28;123974;-74
2022/11/11 01:10:42;;;;;;;6.93;3.43;;;11.30;90.90;;;11.75;58.56;100170.50;4968421;28;123833;-74
2022/11/11 01:13:30;;;;;;;4.20;3.10;;;11.30;90.90;;;11.75;58.34;100167.72;4969171;28;116488;-73
2022/11/11 01:16:11;;;;;;;6.40;3.83;;;11.30;91.00;;;11.73;58.54;100156.91;4967176;28;115522;-74
2022/11/11 01:18:37;;;;;;;9.43;4.50;;;11.30;91.00;;;11.71;58.46;100143.38;4962374;28;122832;-73
2022/11/11 01:21:09;;;;;;;9.97;3.20;;;11.30;91.00;;;11.71;58.19;100143.38;4969073;28;124402;-74
2022/11/11 01:23:39;;;;;;;9.80;3.50;;;11.30;91.00;;;11.70;58.38;100138.13;4972574;28;113969;-74
2022/11/11 01:26:27;;;;;;;5.90;3.53;;;11.30;91.10;;;11.70;58.52;100140.88;4971600;28;114377;-74
2022/11/11 01:28:55;;;;;;;6.77;4.10;;;11.30;91.10;;;11.68;58.32;100143.09;4972339;28;124794;-74
2022/11/11 01:31:24;;;;;;;8.10;3.63;;;11.20;91.10;;;11.67;58.36;100138.69;4974974;28;123214;-74
2022/11/11 01:33:51;;;;;;;6.47;3.87;;;9.70;90.90;;;11.67;58.42;100147.00;4970442;28;114480;-75
2022/11/11 01:36:23;;;;;;;7.03;3.33;;;11.20;91.10;;;11.65;58.43;100150.03;4971381;28;114270;-74
2022/11/11 01:38:53;;;;;;;8.80;3.73;;;11.20;91.10;;;11.64;58.42;100153.13;4960374;28;123931;-75
2022/11/11 01:41:32;;;;;;;5.40;3.07;;;11.20;91.10;;;11.64;58.63;100153.13;4973465;28;123449;-76
2022/11/11 01:44:12;;;;;;;8.13;3.40;;;11.20;91.10;;;11.61;58.61;100151.75;4965937;28;113952;-75
2022/11/11 01:46:58;;;;;;;7.33;3.03;;;11.20;91.10;;;11.60;57.94;100157.56;4970458;28;113277;-75
2022/11/11 01:49:44;;;;;;;9.10;3.87;;;11.20;91.10;;;11.59;58.58;100151.19;4969575;28;124025;-75
2022/11/11 01:52:18;;;;;;;7.60;3.50;;;11.10;91.10;;;11.58;58.82;100154.25;4969307;28;124276;-74
2022/11/11 01:54:50;;;;;;;5.80;3.57;;;11.10;91.10;;;11.56;58.35;100145.41;4970982;28;114197;-75
2022/11/11 01:57:42;;;;;;;3.93;2.83;;;11.20;91.20;;;11.54;58.47;100153.19;4965665;28;114386;-75
2022/11/11 02:00:13;;;;;;;5.23;3.33;;;11.10;91.10;;;11.50;58.42;100145.44;4966771;28;124066;-75
2022/11/11 02:02:54;;;;;;;6.60;3.20;;;11.10;91.10;;;11.49;58.39;100146.53;4973032;28;124006;-74
2022/11/11 02:05:42;;;;;;;7.93;3.17;;;11.10;91.10;;;11.46;58.60;100147.13;4986442;28;113996;-74
2022/11/11 02:08:32;;;;;;;3.70;2.87;;;11.00;91.10;;;11.43;58.38;100144.91;4973490;28;115061;-75
2022/11/11 02:11:11;;;;;;;4.83;2.60;;;11.00;91.10;;;11.40;58.68;100151.03;4985484;28;124117;-74
2022/11/11 02:16:26;;;;;;;4.67;2.93;;;10.90;91.10;;;11.31;58.36;100149.97;4971499;28;114832;-75
2022/11/11 02:18:53;;;;;;;5.23;2.90;;;10.90;91.10;;;11.27;58.93;100157.19;4969027;28;114159;-74
2022/11/11 02:21:29;;;;;;;5.87;3.20;;;10.90;91.20;;;11.26;58.74;100159.13;4971553;28;124017;-74
2022/11/11 02:24:08;;;;;;;5.73;3.37;;;10.80;91.20;;;11.25;58.81;100157.44;4970258;28;123702;-74
2022/11/11 02:26:36;;;;;;;5.27;3.10;;;10.80;91.20;;;11.23;58.83;100154.16;4971362;28;114259;-75
2022/11/11 02:29:10;;;;;;;4.90;3.13;;;10.80;91.20;;;11.23;59.04;100153.31;4962885;28;113767;-75
2022/11/11 02:31:36;;;;;;;6.03;2.73;;;10.80;91.30;;;11.24;58.75;100154.97;4965164;28;124000;-75
2022/11/11 02:34:03;;;;;;;5.27;3.10;;;10.80;91.30;;;11.24;58.79;100149.44;4969359;28;123835;-74
2022/11/11 02:36:30;;;;;;;5.13;3.40;;;11.30;91.60;;;11.24;58.83;100149.44;4970256;28;114292;-74
2022/11/11 02:38:57;;;;;;;5.40;3.00;;;10.80;91.40;;;11.24;59.12;100150.28;4968578;28;113996;-74
2022/11/11 02:44:09;;;;;;;5.33;3.20;;;10.80;91.40;;;11.21;59.15;100155.56;4972675;28;124460;-74
2022/11/11 02:46:35;;;;;;;4.67;3.07;;;10.70;91.40;;;11.20;58.82;100159.41;4969381;28;114246;-74
2022/11/11 02:49:03;;;;;;;6.37;3.50;;;10.80;91.40;;;11.17;58.92;100162.75;4963394;28;113943;-75
2022/11/11 02:51:29;;;;;;;3.97;3.03;;;10.70;91.40;;;11.13;59.01;100164.44;4969482;28;123897;-74
2022/11/11 02:53:57;;;;;;;5.00;3.10;;;10.70;91.40;;;11.11;58.99;100161.94;4969796;28;124155;-75
2022/11/11 02:59:20;;;;;;;5.20;2.97;;;10.70;91.40;;;11.07;58.94;100144.28;4959091;28;116234;-75
2022/11/11 03:01:47;;;;;;;6.13;3.50;;;10.60;91.40;;;11.05;59.26;100149.25;4969553;28;124136;-75
2022/11/11 03:04:13;;;;;;;3.30;2.70;;;10.60;91.40;;;11.04;59.28;100139.28;4971304;28;124264;-75
2022/11/11 03:06:40;;;;;;;4.17;2.87;;;10.60;91.40;;;11.04;59.40;100150.34;4975037;28;114131;-74
2022/11/11 03:09:07;;;;;;;6.23;3.40;;;10.60;91.40;;;11.02;59.33;100147.88;4975001;28;113430;-75
2022/11/11 03:11:37;;;;;;;4.63;3.47;;;10.60;91.50;;;11.03;58.99;100144.00;4973867;28;124542;-74
2022/11/11 03:14:23;;;;;;;8.23;3.33;;;10.60;91.50;;;11.00;59.08;100133.50;4972301;28;123871;-75
2022/11/11 03:19:35;;;;;;;5.80;3.20;;;10.50;91.50;;;10.92;59.69;100144.31;4972595;28;113739;-75
2022/11/11 03:22:02;;;;;;;4.30;3.37;;;10.50;91.50;;;10.86;59.28;100134.41;4969145;28;124163;-75
2022/11/11 03:27:14;;;;;;;6.10;3.93;;;10.40;91.60;;;10.75;59.92;100133.59;4970705;28;114649;-75
2022/11/11 03:29:41;;;;;;;6.37;4.20;;;10.30;91.60;;;10.73;59.77;100130.28;4982879;28;113058;-75
2022/11/11 03:32:08;;;;;;;7.70;3.50;;;10.50;91.80;;;10.70;59.84;100139.13;4960908;28;123867;-74
2022/11/11 03:34:36;;;;;;;7.40;4.43;;;10.30;91.70;;;10.68;60.28;100131.13;4968702;28;123681;-75
2022/11/11 03:39:53;;;;;;;10.43;4.23;;;10.20;91.80;;;10.61;60.38;100138.88;4974397;28;114617;-75
2022/11/11 03:42:21;;;;;;;5.47;3.90;;;10.20;91.80;;;10.59;59.94;100139.16;4969902;28;124495;-75
2022/11/11 03:44:47;;;;;;;7.80;4.40;;;10.20;91.80;;;10.56;60.39;100136.97;4969422;28;123171;-74
2022/11/11 03:47:15;;;;;;;4.60;3.50;;;10.30;91.90;;;10.56;60.49;100139.72;4968582;28;115512;-75
2022/11/11 03:49:44;;;;;;;6.60;4.10;;;10.10;91.90;;;10.55;60.56;100138.03;4980414;28;114003;-75
2022/11/11 03:52:11;;;;;;;4.47;3.57;;;10.10;91.90;;;10.55;60.25;100143.56;4969099;28;124117;-75
2022/11/11 03:54:38;;;;;;;8.03;4.40;;;10.10;92.00;;;10.56;60.00;100148.00;4968164;28;123782;-75
2022/11/11 03:59:49;;;;;;;5.80;3.83;;;10.10;92.00;;;10.56;60.67;100156.31;4971912;28;114848;-74
2022/11/11 04:10:31;;;;;;;7.93;4.13;;;10.10;92.00;;;10.39;60.30;100173.16;4962280;28;114709;-74
2022/11/11 04:23:59;;;;;;;6.50;4.40;;;9.50;92.80;;;9.87;61.14;100176.16;4972974;28;124790;-75
2022/11/11 04:26:26;;;;;;;7.67;4.40;;;9.40;92.90;;;9.84;61.37;100171.19;4970481;28;122736;-75
2022/11/11 04:32:34;;;;;;;6.70;3.77;;;9.30;92.80;;;9.81;61.07;100167.06;4971384;28;114686;-75
2022/11/11 04:34:26;;;;;;;5.57;3.43;;;9.30;92.90;;;9.84;61.15;100165.69;4970484;28;124156;-75
2022/11/11 04:36:52;;;;;;;5.80;4.20;;;9.40;92.90;;;9.90;61.27;100161.81;4967861;28;124556;-75
2022/11/11 04:42:04;;;;;;;7.03;3.83;;;9.50;92.90;;;9.98;61.04;100161.25;4970113;28;115363;-75
2022/11/11 04:47:15;;;;;;;5.00;3.17;;;9.50;92.80;;;10.02;60.79;100162.38;4966988;28;124396;-75
2022/11/11 04:49:50;;;;;;;6.03;4.00;;;9.50;92.80;;;10.05;60.74;100172.06;4967683;28;113841;-75
2022/11/11 04:52:25;;;;;;;6.10;3.80;;;9.60;92.80;;;10.02;60.66;100178.09;4969219;28;114036;-75
2022/11/11 04:57:46;;;;;;;6.93;4.80;;;9.70;92.80;;;9.95;60.56;100189.44;4975194;28;124778;-75
2022/11/11 05:00:16;;;;;;;10.33;4.23;;;9.50;92.80;;;9.78;60.83;100197.09;4959813;28;113252;-75
2022/11/11 05:08:54;;;;;;;8.60;4.90;;;9.20;93.00;;;9.52;61.24;100219.13;4975275;28;124622;-75
2022/11/11 05:11:04;;;;;;;9.47;5.23;;;8.90;93.00;;;9.32;61.77;100230.88;4977973;28;114697;-75
2022/11/11 05:22:06;;;;;;;9.53;5.50;;;8.50;93.40;;;8.88;62.38;100258.78;4977835;28;114679;-75
2022/11/11 05:27:17;;;;;;;5.47;4.60;;;8.30;93.50;;;8.85;62.32;100262.06;4977939;28;125240;-75
2022/11/11 05:29:44;;;;;;;8.97;4.30;;;8.30;93.60;;;8.92;62.52;100259.06;4975150;28;123999;-75
2022/11/11 05:32:15;;;;;;;5.60;4.00;;;8.50;93.70;;;9.00;62.73;100264.94;4984609;28;114892;-75
2022/11/11 05:34:41;;;;;;;6.93;4.20;;;8.50;93.70;;;9.07;62.39;100253.66;4961086;28;114904;-75
2022/11/11 05:37:08;;;;;;;5.30;4.07;;;8.60;93.70;;;9.15;62.20;100257.84;4974276;28;124237;-75
2022/11/11 05:39:34;;;;;;;7.07;4.10;;;8.60;93.60;;;9.19;62.48;100259.81;4973702;28;123699;-75
2022/11/11 05:42:01;;;;;;;6.30;4.03;;;8.70;93.60;;;9.26;62.08;100268.66;4974475;28;114198;-75
2022/11/11 05:44:27;;;;;;;7.00;4.50;;;8.80;93.60;;;9.29;62.21;100270.91;4972447;28;113795;-75
2022/11/11 05:46:54;;;;;;;7.80;4.50;;;8.80;93.60;;;9.34;62.34;100272.84;4974280;28;124290;-75
2022/11/11 05:49:22;;;;;;;6.70;3.73;;;8.80;93.50;;;9.37;61.87;100266.78;4993759;28;122966;-78
2022/11/11 05:51:48;;;;;;;6.53;4.57;;;8.90;93.60;;;9.42;61.91;100272.31;4976899;28;115133;-75
2022/11/11 05:54:15;;;;;;;9.50;4.60;;;8.90;93.50;;;9.47;61.72;100277.03;4974045;28;114098;-76
2022/11/11 05:56:42;;;;;;;8.90;4.57;;;8.90;93.50;;;9.50;61.69;100276.50;4972603;28;124125;-75
2022/11/11 05:59:09;;;;;;;5.80;4.20;;;9.00;93.50;;;9.54;61.67;100279.53;4974208;28;123739;-75
2022/11/11 06:01:36;;;;;;;7.77;4.50;;;9.00;93.40;;;9.57;61.55;100279.84;4966564;28;114526;-75
2022/11/11 06:04:04;;;;;;;6.83;4.53;;;9.10;93.40;;;9.59;61.58;100283.19;4995486;28;113122;-76
2022/11/11 06:06:32;;;;;;;5.20;3.70;;;9.10;93.30;;;9.62;61.41;100281.81;4969530;28;123962;-75
2022/11/11 06:08:58;;;;;;;9.20;4.37;;;9.20;93.30;;;9.64;61.11;100285.09;4961290;28;122908;-75
2022/11/11 06:11:26;;;;;;;7.13;4.40;;;9.20;93.20;;;9.65;61.18;100290.38;4987699;28;113460;-75
2022/11/11 06:13:54;;;;;;;10.33;4.50;;;9.30;93.30;;;9.68;61.08;100298.09;4973818;28;114481;-76
2022/11/11 06:16:21;;;;;;;10.30;5.50;;;9.20;93.20;;;9.69;61.24;100297.00;4969362;28;124038;-75
2022/11/11 06:18:48;;;;;;;5.10;4.20;;;9.20;93.20;;;9.71;61.15;100299.50;4962638;28;123656;-75
2022/11/11 06:21:15;;;;;;;11.37;5.10;;;9.20;93.10;;;9.69;61.26;100297.00;4966496;28;114878;-76
2022/11/11 06:23:41;;;;;;;6.27;4.47;;;9.20;93.10;;;9.69;61.03;100296.16;4968594;28;114899;-76
2022/11/11 06:26:13;;;;;;;7.60;4.30;;;9.20;93.10;;;9.71;61.28;100303.09;4971952;28;123800;-76
2022/11/11 06:28:51;;;;;;;5.37;4.20;;;9.20;93.10;;;9.74;61.36;100310.00;4959172;28;123951;-76
2022/11/11 06:31:24;;;;;;;5.73;3.80;;;9.20;93.20;;;9.82;62.46;100305.88;4968554;28;113408;-76
2022/11/11 06:33:52;;;;;;;6.07;3.70;;;9.40;93.70;;;9.90;62.49;100317.22;4964124;28;113008;-76
2022/11/11 06:36:20;;;;;;;6.63;4.23;;;9.30;93.90;;;9.95;62.74;100321.94;4954273;28;123219;-76
2022/11/11 06:38:50;;;;;;;6.87;4.10;;;9.00;93.90;;;9.95;62.19;100319.19;4970920;28;124083;-76
2022/11/11 06:41:18;;;;;;;9.17;5.20;;;9.40;93.90;;;9.85;61.35;100330.19;4971653;28;114413;-75
2022/11/11 06:43:45;;;;;;;7.37;5.23;;;9.20;93.50;;;9.66;61.54;100330.66;4969783;28;116010;-81
2022/11/11 06:46:26;;;;;;;8.63;4.63;;;9.10;93.40;;;9.55;61.39;100328.94;4969054;28;123885;-76
2022/11/11 06:48:53;;;;;;;6.33;3.90;;;9.00;93.80;;;9.50;61.51;100332.50;5000608;28;123185;-78
2022/11/11 06:51:19;;;;;;;7.90;4.57;;;8.90;93.50;;;9.47;61.54;100332.22;4972077;28;113999;-76
2022/11/11 06:53:46;;;;;;;5.20;4.00;;;8.90;93.50;;;9.41;61.58;100323.09;4966928;28;114164;-77
2022/11/11 06:56:13;;;;;;;5.90;3.97;;;8.90;93.50;;;9.38;61.51;100322.81;4975402;28;124144;-78
2022/11/11 06:58:40;;;;;;;4.20;3.80;;;8.90;93.50;;;9.37;61.70;100326.63;5002600;28;123238;-75
2022/11/11 07:01:08;;;;;;;10.30;4.40;;;8.80;93.40;;;9.40;61.59;100320.59;4973363;28;113820;-76
2022/11/11 07:03:35;;;;;;;7.83;4.20;;;8.90;93.50;;;9.42;61.83;100323.91;4972889;28;113901;-75
2022/11/11 07:06:03;;;;;;;6.37;4.30;;;8.90;93.40;;;9.43;61.39;100331.06;4968962;28;124070;-74
2022/11/11 07:08:31;;;;;;;4.90;3.87;;;8.90;93.40;;;9.40;61.57;100329.72;4968758;28;124146;-75
2022/11/11 07:10:57;;;;;;;5.20;3.93;;;8.90;93.50;;;9.42;61.78;100334.94;4959522;28;114517;-75
2022/11/11 07:13:24;;;;;;;8.20;4.80;;;8.90;93.50;;;9.44;61.72;100332.75;4957971;28;115068;-75
2022/11/11 07:15:51;;;;;;;7.83;3.93;;;8.90;93.70;;;9.46;61.34;100336.09;4959315;28;123989;-75
2022/11/11 07:18:17;;;;;;;8.77;4.57;;;8.90;93.50;;;9.50;61.35;100337.19;4964407;28;125454;-74
2022/11/11 07:20:44;;;;;;;5.90;4.00;;;9.00;93.50;;;9.50;61.60;100337.19;4964352;28;114443;-75
2022/11/11 07:23:10;;;;;;;5.03;3.80;;;8.90;93.50;;;9.50;61.51;100331.69;4956961;28;113694;-74
2022/11/11 07:25:37;;;;;;;9.83;4.77;;;8.90;93.50;;;9.46;61.56;100330.56;4955377;28;124964;-74
2022/11/11 07:28:03;;;;;;;6.30;4.17;;;8.90;93.50;;;9.42;61.75;100335.78;4953938;28;123801;-74
2022/11/11 07:30:30;;;;;;;12.83;5.30;;;8.90;93.50;;;9.44;61.83;100327.25;4987065;28;114331;-74
2022/11/11 07:32:56;;;;;;;9.53;4.00;;;8.90;93.60;;;9.43;61.78;100326.41;4954890;28;114926;-74
2022/11/11 07:35:23;;;;;;;8.50;4.13;;;8.90;93.60;;;9.48;61.65;100333.88;4951416;28;123897;-74
2022/11/11 07:37:50;;;;;;;10.47;4.53;;;8.90;93.60;;;9.50;61.78;100335.25;4956838;28;125039;-74
2022/11/11 07:40:21;;;;;;;7.03;4.87;;;8.90;93.60;;;9.55;61.92;100341.91;4959213;28;113451;-74
2022/11/11 07:42:47;;;;;;;6.33;4.23;;;9.00;93.60;;;9.51;61.49;100344.41;4994329;28;113980;-74
2022/11/11 07:45:14;;;;;;;9.70;5.13;;;8.90;93.60;;;9.51;61.57;100341.63;4956454;28;124198;-74
2022/11/11 07:47:44;;;;;;;9.40;4.30;;;8.90;93.60;;;9.54;61.70;100341.09;4983703;28;123873;-74
2022/11/11 07:50:12;;;;;;;7.83;4.47;;;8.90;93.60;;;9.54;61.50;100337.47;4958188;28;114309;-74
2022/11/11 07:52:39;;;;;;;7.13;3.83;;;8.90;93.70;;;9.54;61.88;100338.34;4963109;28;114044;-74
2022/11/11 07:55:09;;;;;;;8.57;4.90;;;8.90;93.70;;;9.56;61.75;100341.63;4966876;28;125707;-74
2022/11/11 07:57:36;;;;;;;9.83;5.30;;;8.90;93.70;;;9.57;61.74;100337.78;4977375;28;121641;-74
2022/11/11 08:00:06;;;;;;;10.90;4.53;;;9.00;93.70;;;9.58;62.03;100333.94;4963133;28;115133;-74
2022/11/11 08:02:33;;;;;;;9.50;4.73;;;9.00;93.70;;;9.60;61.51;100340.00;4958296;28;114474;-75
2022/11/11 08:04:59;;;;;;;8.33;4.57;;;9.00;93.70;;;9.62;61.61;100331.47;4964230;28;124435;-75
2022/11/11 08:07:26;;;;;;;6.77;4.40;;;9.00;93.70;;;9.69;61.58;100341.16;4961345;28;125382;-75
2022/11/11 08:09:52;;;;;;;5.57;4.50;;;9.10;93.70;;;9.70;61.59;100337.31;4956514;28;114055;-74
2022/11/11 08:15:05;;;;;;;13.00;4.50;;;9.10;93.70;;;9.70;61.81;100340.06;4984930;28;125385;-75
2022/11/11 08:17:37;;;;;;;4.70;3.47;;;9.10;93.70;;;9.76;61.72;100346.44;4961851;28;123580;-74
2022/11/11 08:20:09;;;;;;;10.40;4.37;;;9.40;93.90;;;9.82;61.48;100337.06;4956447;28;114780;-75
2022/11/11 08:22:41;;;;;;;7.63;4.47;;;9.20;93.80;;;9.86;61.78;100351.16;4962576;28;113756;-74
2022/11/11 08:25:14;;;;;;;7.83;4.30;;;9.20;93.70;;;9.94;61.76;100342.38;4955982;28;124658;-75
2022/11/11 08:27:41;;;;;;;6.83;3.90;;;9.30;93.80;;;10.01;61.50;100331.06;4999441;28;123131;-74
2022/11/11 08:30:09;;;;;;;5.27;3.50;;;9.40;93.80;;;10.08;61.73;100323.38;4969982;28;114390;-75
2022/11/11 08:32:35;;;;;;;6.03;4.17;;;9.50;94.10;;;10.16;61.47;100320.09;5002496;28;113904;-76
2022/11/11 08:35:06;;;;;;;8.13;4.57;;;9.50;93.70;;;10.24;61.20;100327.00;4967073;28;124267;-75
2022/11/11 08:37:33;;;;;;;5.40;4.10;;;9.60;93.70;;;10.29;60.99;100325.13;4942534;28;122809;-75
2022/11/11 08:39:59;;;;;;;6.17;3.80;;;9.70;93.70;;;10.36;61.36;100322.91;4967913;28;113331;-75
2022/11/11 08:42:26;;;;;;;8.13;4.37;;;9.70;93.60;;;10.42;60.91;100326.50;4967576;28;113920;-75
2022/11/11 08:44:53;;;;;;;7.57;4.00;;;9.80;93.60;;;10.48;60.83;100325.44;4966069;28;125041;-75
2022/11/11 08:47:26;;;;;;;7.60;5.03;;;9.90;93.60;;;10.51;60.75;100321.28;4967682;28;122875;-75
2022/11/11 08:49:53;;;;;;;7.33;4.90;;;9.90;93.50;;;10.48;60.94;100319.09;4969531;28;115081;-75
2022/11/11 08:52:19;;;;;;;8.37;4.00;;;9.90;93.40;;;10.42;60.67;100326.50;4967828;28;115587;-75
2022/11/11 08:54:46;;;;;;;8.10;4.40;;;9.80;93.50;;;10.33;61.24;100323.44;4969638;28;124029;-75
2022/11/11 08:57:12;;;;;;;8.17;4.90;;;9.70;93.50;;;10.32;60.98;100326.50;4966796;28;123842;-74
2022/11/11 08:59:39;;;;;;;5.80;4.23;;;9.70;93.60;;;10.31;61.62;100331.19;4967166;28;114268;-74
2022/11/11 09:02:08;;;;;;;5.70;4.47;;;9.70;93.70;;;10.35;61.32;100331.47;4970641;28;113936;-76
2022/11/11 09:04:34;;;;;;;12.33;4.80;;;9.70;93.80;;;10.40;61.80;100339.78;4964312;28;124125;-75
2022/11/11 09:07:01;;;;;;;6.93;4.07;;;9.80;93.90;;;10.46;61.51;100337.84;4984311;28;122508;-75
2022/11/11 09:09:27;;;;;;;6.37;4.57;;;11.30;94.00;;;10.47;61.37;100332.03;4967077;28;114037;-76
2022/11/11 09:11:54;;;;;;;7.37;4.00;;;9.90;93.80;;;10.49;61.12;100343.66;4966647;28;114006;-75
2022/11/11 09:14:20;;;;;;;7.53;4.70;;;9.90;93.80;;;10.49;61.34;100338.13;4966705;28;124088;-74
2022/11/11 09:16:47;;;;;;;8.20;4.87;;;9.90;93.70;;;10.47;61.34;100340.34;4966214;28;123898;-74
2022/11/11 09:19:13;;;;;;;5.87;3.63;;;9.90;93.60;;;10.49;61.35;100343.66;4957922;28;113500;-74
2022/11/11 09:21:40;;;;;;;6.17;4.07;;;9.90;93.60;;;10.53;61.26;100338.41;4968392;28;113124;-74
2022/11/11 09:24:06;;;;;;;8.77;5.30;;;9.90;93.60;;;10.55;61.15;100328.72;4968713;28;124892;-75
2022/11/11 09:26:36;;;;;;;8.20;5.17;;;9.90;93.50;;;10.60;60.73;100336.22;4961684;28;123980;-75
2022/11/11 09:29:02;;;;;;;7.07;5.20;;;10.00;93.10;;;10.58;61.00;100319.88;4967494;28;114315;-75
2022/11/11 09:31:29;;;;;;;14.20;6.23;;;10.00;93.00;;;10.63;60.56;100318.25;4952089;28;113567;-75
2022/11/11 09:33:55;;;;;;;13.63;5.20;;;10.00;93.10;;;10.66;60.95;100320.47;4959316;28;124182;-75
2022/11/11 09:36:22;;;;;;;7.70;5.20;;;10.00;93.00;;;10.69;60.95;100319.91;4977700;28;123712;-74
2022/11/11 09:38:48;;;;;;;8.37;4.90;;;10.10;93.00;;;10.74;60.94;100322.66;4974184;28;116606;-76
2022/11/11 09:41:48;;;;;;;10.90;4.40;;;10.10;93.10;;;10.78;60.54;100318.25;4972367;28;115030;-75
2022/11/11 09:44:32;;;;;;;11.00;5.10;;;10.10;93.10;;;10.83;61.01;100321.03;4999419;28;123336;-76
2022/11/11 09:47:16;;;;;;;19.93;5.70;;;10.20;93.10;;;10.91;61.01;100312.19;4971719;28;123100;-75
2022/11/11 09:49:51;;;;;;;7.87;5.23;;;10.30;93.10;;;11.01;60.32;100319.63;4968012;28;114409;-75
2022/11/11 09:52:19;;;;;;;11.43;4.10;;;10.40;93.10;;;11.08;60.70;100313.81;4969711;28;114066;-74
2022/11/11 09:54:56;;;;;;;8.57;5.00;;;10.40;93.00;;;11.18;60.30;100302.75;4971745;28;123920;-75
2022/11/11 09:57:30;;;;;;;6.77;5.00;;;10.60;93.00;;;11.26;60.02;100299.41;4978798;28;123783;-75
2022/11/11 10:00:01;;;;;;;9.57;4.50;;;10.60;93.20;;;11.34;59.56;100297.97;4968721;28;114381;-74
2022/11/11 10:02:42;;;;;;;9.60;5.17;;;10.70;92.90;;;11.38;59.88;100305.44;4970481;28;114322;-75
2022/11/11 10:05:18;;;;;;;8.30;4.73;;;10.70;92.70;;;11.40;59.47;100297.69;4960979;28;124109;-76
2022/11/11 10:07:51;;;;;;;13.07;5.13;;;10.70;92.70;;;11.47;59.28;100300.16;4970690;28;123559;-74
2022/11/11 10:10:46;;;;;;;9.10;4.77;;;10.80;92.70;;;11.50;59.74;100303.22;4970992;28;113631;-78
2022/11/11 10:13:16;;;;;;;14.23;5.50;;;10.90;92.70;;;11.55;59.62;100294.03;4969380;28;114078;-75
2022/11/11 10:16:16;;;;;;;11.50;5.63;;;10.90;92.60;;;11.63;59.55;100303.69;4968633;28;123928;-76
2022/11/11 10:19:40;;;;;;;11.63;5.30;;;11.00;92.60;;;11.69;59.17;100294.28;4970699;28;123382;-77
2022/11/11 10:22:21;;;;;;;7.33;4.17;;;11.10;92.60;;;11.74;58.83;100299.81;4936890;28;114857;-75
2022/11/11 10:25:07;;;;;;;6.80;4.53;;;11.10;92.50;;;11.83;59.10;100303.63;4967442;28;113912;-76
2022/11/11 10:27:34;;;;;;;6.43;4.70;;;11.20;92.50;;;11.88;59.24;100298.09;4968074;28;123991;-75
2022/11/11 10:30:14;;;;;;;5.87;4.33;;;11.30;92.50;;;11.98;59.26;100301.91;4969665;28;124271;-76
2022/11/11 10:32:44;;;;;;;6.23;4.60;;;11.30;92.50;;;12.03;59.37;100304.66;4953560;28;113868;-78
2022/11/11 10:35:20;;;;;;;7.60;4.40;;;11.40;92.50;;;12.12;58.79;100303.78;4985850;28;114769;-76
2022/11/11 10:38:09;;;;;;;5.37;3.80;;;11.50;92.50;;;12.25;58.61;100307.88;4970938;28;124391;-77
2022/11/11 10:40:59;;;;;;;8.10;4.97;;;11.60;92.50;;;12.38;58.87;100304.47;4967942;28;123671;-75
2022/11/11 10:43:28;;;;;;;5.67;4.70;;;11.70;92.50;;;12.51;58.39;100310.47;4954976;28;97008;-76
2022/11/11 10:46:02;;;;;;;8.00;4.30;;;11.80;92.50;;;12.63;58.49;100310.09;4968502;28;113972;-76
2022/11/11 10:48:40;;;;;;;8.63;5.20;;;11.90;92.40;;;12.71;58.34;100307.56;4968434;28;124132;-76
2022/11/11 10:51:07;;;;;;;10.23;4.37;;;12.00;92.40;;;12.86;58.27;100311.31;4968355;28;123533;-76
2022/11/11 10:53:41;;;;;;;6.23;4.50;;;12.20;92.40;;;13.01;58.14;100297.31;4971809;28;113700;-76
2022/11/11 10:56:23;;;;;;;7.83;5.30;;;12.30;92.30;;;13.10;57.42;100287.22;4977352;28;114611;-76
2022/11/11 10:58:57;;;;;;;6.03;4.60;;;12.50;92.10;;;13.19;57.52;100290.19;4967646;28;124540;-77
2022/11/11 11:01:42;;;;;;;10.17;5.33;;;12.50;92.10;;;13.28;57.27;100282.09;4958036;28;123893;-76
2022/11/11 11:04:25;;;;;;;8.47;5.07;;;12.60;92.00;;;13.36;57.02;100271.16;4987283;28;113318;-75
2022/11/11 11:06:58;;;;;;;12.17;6.20;;;12.70;91.90;;;13.47;56.90;100271.88;4967625;28;114407;-74
2022/11/11 11:09:59;;;;;;;6.93;5.00;;;12.80;91.90;;;13.60;57.05;100262.84;4967037;28;124512;-73
2022/11/11 11:12:34;;;;;;;8.00;4.63;;;12.90;91.90;;;13.78;56.61;100268.72;4964302;28;123026;-75
2022/11/11 11:15:12;;;;;;;9.47;4.93;;;13.10;91.90;;;13.97;56.40;100271.50;4968938;28;114501;-76
2022/11/11 11:17:51;;;;;;;9.50;5.13;;;13.20;91.90;;;14.18;56.00;100258.97;4968033;28;114200;-74
2022/11/11 11:20:22;;;;;;;7.27;5.20;;;13.40;91.70;;;14.33;55.69;100258.75;4955700;28;122995;-74
2022/11/11 11:22:52;;;;;;;7.00;4.30;;;13.60;91.60;;;14.48;55.55;100262.41;4966106;28;125466;-75
2022/11/11 11:25:21;;;;;;;6.07;4.30;;;13.70;91.50;;;14.58;55.08;100256.72;4965955;28;115035;-74
2022/11/11 11:27:51;;;;;;;6.93;4.50;;;13.90;91.40;;;14.68;55.30;100255.75;4967890;28;116064;-74
2022/11/11 11:30:22;;;;;;;9.03;4.50;;;14.00;91.30;;;14.80;54.93;100247.72;4951074;28;123064;-74
2022/11/11 11:33:01;;;;;;;5.67;3.80;;;14.10;91.30;;;14.94;54.78;100250.56;4953092;28;124254;-75
2022/11/11 11:35:40;;;;;;;6.90;4.00;;;14.20;91.10;;;15.07;54.58;100257.25;4965115;28;114513;-76
2022/11/11 11:38:10;;;;;;;11.17;5.03;;;14.40;91.10;;;15.21;53.98;100258.13;4965766;28;113033;-74
2022/11/11 11:40:48;;;;;;;6.50;4.27;;;14.50;90.90;;;15.34;54.02;100254.53;5000749;28;123958;-75
2022/11/11 11:43:32;;;;;;;6.83;3.87;;;14.60;90.80;;;15.51;53.81;100250.31;4967135;28;124196;-75
2022/11/11 11:46:02;;;;;;;7.47;4.17;;;14.70;90.80;;;15.63;53.54;100247.81;4960421;28;114511;-75
2022/11/11 11:49:05;;;;;;;5.17;3.70;;;14.90;90.70;;;15.77;53.22;100251.47;4995020;28;114006;-74
2022/11/11 11:51:58;;;;;;;5.57;3.67;;;15.00;90.50;;;15.91;53.20;100251.44;4966871;28;124110;-74
2022/11/11 11:54:34;;;;;;;6.10;4.43;;;15.20;90.50;;;16.00;51.91;100251.50;5002327;28;123004;-75